Time;durP1;ratioP1;P1;durP2;ratioP2;P2;SDS_P1;SDS_P2;PMS_P1;PMS_P2;Temp;Humidity;BMP_temperature;BMP_pressure;BME280_temperature;BME280_humidity;BME280_pressure;Samples;Min_cycle;Max_cycle;Signal;HPM_P1;HPM_P2
2022/01/06 00:00:09;;;;;;;10.57;3.08;;;1.40;99.90;;;;;;5053250;28;20194;-79
2022/01/06 00:02:35;;;;;;;10.80;3.00;;;1.40;99.90;;;;;;5034864;28;20696;-79
2022/01/06 00:05:01;;;;;;;9.23;2.20;;;1.30;99.90;;;;;;5053407;28;20659;-78
2022/01/06 00:07:28;;;;;;;8.68;2.45;;;1.40;99.90;;;;;;5035731;28;20631;-79
2022/01/06 00:09:54;;;;;;;5.30;2.90;;;1.30;99.90;;;;;;5036102;28;20180;-78
2022/01/06 00:12:29;;;;;;;10.90;2.27;;;1.40;99.90;;;;;;5019232;28;20191;-78
2022/01/06 00:17:36;;;;;;;6.10;3.10;;;1.50;99.90;;;;;;5019569;28;20654;-79
2022/01/06 00:25:49;;;;;;;8.45;2.22;;;1.50;99.90;;;;;;5010980;28;20741;-79
2022/01/06 00:28:16;;;;;;;7.80;2.50;;;1.50;99.90;;;;;;5027440;28;20684;-78
2022/01/06 00:30:42;;;;;;;13.85;4.22;;;1.50;99.90;;;;;;5053619;28;20215;-78
2022/01/06 00:33:08;;;;;;;4.53;2.20;;;1.50;99.90;;;;;;5051508;28;20207;-79
2022/01/06 00:35:34;;;;;;;2.40;1.87;;;1.50;99.90;;;;;;5035548;28;20658;-79
2022/01/06 00:38:00;;;;;;;4.63;2.50;;;1.40;99.90;;;;;;5036786;28;20431;-78
2022/01/06 00:40:26;;;;;;;8.27;2.53;;;1.50;99.90;;;;;;5035448;28;20182;-79
2022/01/06 00:42:52;;;;;;;9.87;2.07;;;1.50;99.90;;;;;;5035822;28;20282;-79
2022/01/06 00:45:17;;;;;;;6.03;2.47;;;1.70;99.90;;;;;;5053761;28;20181;-78
2022/01/06 00:47:44;;;;;;;8.50;2.77;;;1.50;99.90;;;;;;5054568;28;20189;-79
2022/01/06 00:50:11;;;;;;;3.13;1.77;;;1.70;99.90;;;;;;5042697;28;20176;-79
2022/01/06 00:52:37;;;;;;;6.97;2.42;;;1.50;99.90;;;;;;5062199;28;20250;-79
2022/01/06 00:55:04;;;;;;;6.93;2.17;;;1.50;99.90;;;;;;5044679;28;20243;-80
2022/01/06 00:57:29;;;;;;;6.35;2.10;;;1.60;99.90;;;;;;5063216;28;20176;-80
2022/01/06 00:59:55;;;;;;;6.00;1.80;;;1.50;99.90;;;;;;5062498;28;20211;-79
2022/01/06 01:02:21;;;;;;;11.77;2.57;;;1.40;99.90;;;;;;5062820;28;20774;-80
2022/01/06 01:04:47;;;;;;;6.28;2.10;;;1.50;99.90;;;;;;5062198;28;20201;-80
2022/01/06 01:07:13;;;;;;;3.60;1.85;;;1.50;99.90;;;;;;5062135;28;20719;-79
2022/01/06 01:09:39;;;;;;;14.73;2.10;;;1.50;99.90;;;;;;5062181;28;20187;-80
2022/01/06 01:12:06;;;;;;;8.23;2.57;;;1.50;99.90;;;;;;5060305;28;20531;-79
2022/01/06 01:14:42;;;;;;;3.78;1.88;;;1.40;99.90;;;;;;5039209;28;20212;-79
2022/01/06 01:17:13;;;;;;;8.15;1.90;;;1.50;99.90;;;;;;5040280;28;20168;-79
2022/01/06 01:19:39;;;;;;;7.43;1.92;;;1.40;99.90;;;;;;5023498;28;20263;-79
2022/01/06 01:22:04;;;;;;;7.50;2.83;;;1.50;99.90;;;;;;5022142;28;20232;-79
2022/01/06 01:24:30;;;;;;;10.37;2.17;;;1.40;99.90;;;;;;5038541;28;20751;-80
2022/01/06 01:26:56;;;;;;;3.70;1.80;;;1.40;99.90;;;;;;5038031;28;20797;-79
2022/01/06 01:29:22;;;;;;;4.33;1.93;;;1.40;99.90;;;;;;5055563;28;20184;-79
2022/01/06 01:31:54;;;;;;;6.15;2.10;;;1.40;99.90;;;;;;5020142;28;20223;-77
2022/01/06 01:34:26;;;;;;;3.92;2.00;;;1.60;99.90;;;;;;5035725;28;20227;-78
2022/01/06 01:36:57;;;;;;;5.50;2.53;;;1.50;99.90;;;;;;5035889;28;20173;-78
2022/01/06 01:39:24;;;;;;;6.00;2.15;;;1.50;99.90;;;;;;5036381;28;20238;-78
2022/01/06 01:41:50;;;;;;;9.35;2.35;;;1.50;99.90;;;;;;5056059;28;20200;-78
2022/01/06 01:44:19;;;;;;;9.88;1.98;;;1.50;99.90;;;;;;5055903;28;20290;-79
2022/01/06 01:46:58;;;;;;;5.93;2.05;;;1.40;99.90;;;;;;5049860;28;20673;-78
2022/01/06 01:51:50;;;;;;;4.57;1.70;;;1.40;99.90;;;;;;5050218;28;20207;-78
2022/01/06 01:54:16;;;;;;;8.30;1.95;;;1.50;99.90;;;;;;5049869;28;20445;-77
2022/01/06 01:56:43;;;;;;;9.30;2.10;;;1.50;99.90;;;;;;5031879;28;20201;-77
2022/01/06 01:59:08;;;;;;;5.50;2.00;;;1.50;99.90;;;;;;5049930;28;20215;-77
2022/01/06 02:01:34;;;;;;;20.93;2.43;;;1.60;99.90;;;;;;5049885;28;20657;-78
2022/01/06 02:04:01;;;;;;;4.93;1.83;;;1.50;99.90;;;;;;5031883;28;20440;-78
2022/01/06 02:06:26;;;;;;;7.30;1.55;;;1.60;99.90;;;;;;5049862;28;20235;-78
2022/01/06 02:08:54;;;;;;;4.53;2.03;;;1.70;99.90;;;;;;5031686;28;20661;-78
2022/01/06 02:11:22;;;;;;;4.75;1.55;;;1.70;99.90;;;;;;5049781;28;20462;-77
2022/01/06 02:13:55;;;;;;;12.30;2.00;;;1.70;99.90;;;;;;5049718;28;20211;-78
2022/01/06 02:16:22;;;;;;;3.47;1.90;;;1.70;99.90;;;;;;5049777;28;20303;-78
2022/01/06 02:18:49;;;;;;;7.07;1.70;;;1.70;99.90;;;;;;5049514;28;20526;-77
2022/01/06 02:21:15;;;;;;;6.90;1.73;;;1.80;99.90;;;;;;5049582;28;20849;-78
2022/01/06 02:23:40;;;;;;;3.47;1.70;;;1.80;99.90;;;;;;5031677;28;20204;-78
2022/01/06 02:26:06;;;;;;;4.17;2.20;;;1.80;99.90;;;;;;5049967;28;20333;-77
2022/01/06 02:28:32;;;;;;;7.57;1.87;;;1.80;99.90;;;;;;5031968;28;20196;-77
2022/01/06 02:30:58;;;;;;;4.43;2.27;;;1.90;99.90;;;;;;5032170;28;20216;-78
2022/01/06 02:33:24;;;;;;;2.47;1.50;;;1.90;99.90;;;;;;5015349;28;20228;-78
2022/01/06 02:35:51;;;;;;;6.47;2.05;;;1.80;99.90;;;;;;5032089;28;20189;-78
2022/01/06 02:38:18;;;;;;;5.50;2.30;;;1.70;99.90;;;;;;5031240;28;20196;-78
2022/01/06 02:40:45;;;;;;;3.38;1.92;;;1.70;99.90;;;;;;5049127;28;20271;-78
2022/01/06 02:43:14;;;;;;;3.45;2.10;;;1.60;99.90;;;;;;5049268;28;20210;-77
2022/01/06 02:45:39;;;;;;;6.93;1.80;;;1.60;99.90;;;;;;5031113;28;20192;-78
2022/01/06 02:48:08;;;;;;;6.47;1.77;;;1.60;99.90;;;;;;5049051;28;20969;-78
2022/01/06 02:50:39;;;;;;;4.25;1.65;;;1.70;99.90;;;;;;5048814;28;20201;-77
2022/01/06 02:53:07;;;;;;;3.88;2.00;;;1.70;99.90;;;;;;5048859;28;20198;-78
2022/01/06 02:55:34;;;;;;;5.63;1.98;;;1.70;99.90;;;;;;5048956;28;20188;-78
2022/01/06 02:58:00;;;;;;;9.68;2.45;;;1.70;99.90;;;;;;5048737;28;21003;-77
2022/01/06 03:00:26;;;;;;;4.68;2.53;;;1.70;99.90;;;;;;5049150;28;20616;-78
2022/01/06 03:02:52;;;;;;;5.80;1.77;;;1.70;99.90;;;;;;5048661;28;20206;-78
2022/01/06 03:05:18;;;;;;;2.70;1.77;;;1.70;99.90;;;;;;5048912;28;20187;-78
2022/01/06 03:07:45;;;;;;;6.27;2.10;;;1.60;99.90;;;;;;5048860;28;20416;-77
2022/01/06 03:10:14;;;;;;;3.80;2.65;;;1.60;99.90;;;;;;5048688;28;20789;-79
2022/01/06 03:12:40;;;;;;;3.10;1.85;;;1.70;99.90;;;;;;5048586;28;20254;-78
2022/01/06 03:15:08;;;;;;;7.93;2.40;;;1.70;99.90;;;;;;5030616;28;20185;-79
2022/01/06 03:17:35;;;;;;;8.30;2.20;;;1.80;99.90;;;;;;5030463;28;20417;-78
2022/01/06 03:20:03;;;;;;;2.25;1.90;;;1.70;99.90;;;;;;5030542;28;20193;-78
2022/01/06 03:22:28;;;;;;;11.45;2.33;;;1.80;99.90;;;;;;5030263;28;20223;-78
2022/01/06 03:24:54;;;;;;;4.63;1.83;;;1.70;99.90;;;;;;5030546;28;20188;-78
2022/01/06 03:27:20;;;;;;;6.57;2.00;;;1.70;99.90;;;;;;5013983;28;20183;-78
2022/01/06 03:29:45;;;;;;;9.27;2.53;;;1.60;99.90;;;;;;5013833;28;20673;-77
2022/01/06 03:32:11;;;;;;;7.00;2.20;;;1.70;99.90;;;;;;5048278;28;20265;-78
2022/01/06 03:34:37;;;;;;;3.13;1.40;;;1.80;99.90;;;;;;5048261;28;20558;-77
2022/01/06 03:37:05;;;;;;;3.80;1.83;;;1.80;99.90;;;;;;5030346;28;20279;-78
2022/01/06 03:39:31;;;;;;;4.32;2.20;;;1.80;99.90;;;;;;5048269;28;20271;-78
2022/01/06 03:41:57;;;;;;;6.97;1.97;;;1.80;99.90;;;;;;5030295;28;20222;-76
2022/01/06 03:44:22;;;;;;;12.70;2.37;;;1.80;99.90;;;;;;5048320;28;20578;-78
2022/01/06 03:46:48;;;;;;;5.50;2.27;;;1.80;99.90;;;;;;5048367;28;20188;-78
2022/01/06 03:49:14;;;;;;;3.73;1.83;;;1.80;99.90;;;;;;5048343;28;20186;-77
2022/01/06 03:51:39;;;;;;;6.00;2.37;;;1.80;99.90;;;;;;5048179;28;20209;-78
2022/01/06 03:54:05;;;;;;;5.77;1.90;;;1.80;99.90;;;;;;5048297;28;20231;-77
2022/01/06 03:56:30;;;;;;;3.20;1.77;;;1.90;99.90;;;;;;5048503;28;20638;-78
2022/01/06 03:58:56;;;;;;;5.10;1.97;;;1.90;99.90;;;;;;5013834;28;20187;-77
2022/01/06 04:01:22;;;;;;;4.43;1.90;;;1.90;99.90;;;;;;5048218;28;20260;-78
2022/01/06 04:03:48;;;;;;;4.73;1.83;;;1.90;99.90;;;;;;5030246;28;20697;-79
2022/01/06 04:06:15;;;;;;;1.70;1.60;;;1.90;99.90;;;;;;5030309;28;20239;-77
2022/01/06 04:08:41;;;;;;;2.55;1.48;;;2.00;99.90;;;;;;5048227;28;20181;-78
2022/01/06 04:11:07;;;;;;;5.57;2.92;;;2.00;99.90;;;;;;5034335;28;20296;-78
2022/01/06 04:13:34;;;;;;;4.80;1.53;;;2.00;99.90;;;;;;5052321;28;20192;-77
2022/01/06 04:16:02;;;;;;;2.50;2.25;;;1.90;99.90;;;;;;5052219;28;20425;-78
2022/01/06 04:18:28;;;;;;;3.55;1.58;;;1.90;99.90;;;;;;5052252;28;20179;-78
2022/01/06 04:20:54;;;;;;;8.52;1.85;;;2.10;99.90;;;;;;5053349;28;20197;-76
2022/01/06 04:23:20;;;;;;;2.70;2.00;;;1.90;99.90;;;;;;5019298;28;21021;-78
2022/01/06 04:25:45;;;;;;;8.13;2.17;;;1.90;99.90;;;;;;5053654;28;20242;-77
2022/01/06 04:28:11;;;;;;;6.10;1.87;;;1.90;99.90;;;;;;5053260;28;20673;-78
2022/01/06 04:30:37;;;;;;;6.50;2.07;;;1.90;99.90;;;;;;5035063;28;20835;-79
2022/01/06 04:33:03;;;;;;;3.83;1.33;;;2.00;99.90;;;;;;5053107;28;20296;-78
2022/01/06 04:35:28;;;;;;;4.00;1.93;;;1.90;99.90;;;;;;5034233;28;20539;-77
2022/01/06 04:37:54;;;;;;;2.90;2.00;;;1.90;99.90;;;;;;5034164;28;20438;-79
2022/01/06 04:40:20;;;;;;;3.70;1.73;;;1.90;99.90;;;;;;5052307;28;20270;-78
2022/01/06 04:42:45;;;;;;;2.30;1.70;;;2.00;99.90;;;;;;5052193;28;20236;-76
2022/01/06 04:45:11;;;;;;;3.40;1.77;;;1.90;99.90;;;;;;5052124;28;20553;-76
2022/01/06 04:47:37;;;;;;;2.53;1.80;;;1.90;99.90;;;;;;5051900;28;20211;-76
2022/01/06 04:50:03;;;;;;;3.67;1.70;;;1.80;99.90;;;;;;5051719;28;20234;-75
2022/01/06 04:52:28;;;;;;;2.75;1.48;;;1.90;99.90;;;;;;5051371;28;20234;-76
2022/01/06 04:54:54;;;;;;;2.93;1.60;;;1.90;99.90;;;;;;5051751;28;20181;-77
2022/01/06 04:57:20;;;;;;;4.43;1.57;;;1.90;99.90;;;;;;5034180;28;20178;-77
2022/01/06 04:59:45;;;;;;;2.33;1.90;;;1.90;99.90;;;;;;5051794;28;20176;-77
2022/01/06 05:02:11;;;;;;;4.40;2.30;;;1.80;99.90;;;;;;5051563;28;20181;-77
2022/01/06 05:04:37;;;;;;;3.13;1.77;;;1.80;99.90;;;;;;5051753;28;20189;-77
2022/01/06 05:07:03;;;;;;;3.40;1.80;;;1.80;99.90;;;;;;5051354;28;20192;-78
2022/01/06 05:09:28;;;;;;;1.70;1.60;;;1.80;99.90;;;;;;5051679;28;20181;-78
2022/01/06 05:11:54;;;;;;;2.07;1.87;;;1.90;99.90;;;;;;5051353;28;20226;-77
2022/01/06 05:14:20;;;;;;;5.60;1.70;;;1.90;99.90;;;;;;5033350;28;20768;-78
2022/01/06 05:16:45;;;;;;;3.20;1.77;;;1.90;99.90;;;;;;5017573;28;20185;-77
2022/01/06 05:19:11;;;;;;;4.73;1.70;;;1.90;99.90;;;;;;5051623;28;20226;-78
2022/01/06 05:21:37;;;;;;;2.03;1.80;;;1.80;99.90;;;;;;5050284;28;20292;-78
2022/01/06 05:24:10;;;;;;;2.80;1.90;;;1.90;99.90;;;;;;5033511;28;20212;-78
2022/01/06 05:26:38;;;;;;;2.05;1.95;;;1.90;99.90;;;;;;5035631;28;20225;-77
2022/01/06 05:29:05;;;;;;;1.80;1.70;;;1.80;99.90;;;;;;5034606;28;20197;-78
2022/01/06 05:31:31;;;;;;;5.40;2.40;;;1.90;99.90;;;;;;5051847;28;21055;-78
2022/01/06 05:33:56;;;;;;;3.40;2.10;;;1.90;99.90;;;;;;5033674;28;20309;-78
2022/01/06 05:36:22;;;;;;;1.90;1.70;;;1.90;99.90;;;;;;5051569;28;20189;-78
2022/01/06 05:38:47;;;;;;;2.23;1.63;;;1.90;99.90;;;;;;5051619;28;20198;-78
2022/01/06 05:41:13;;;;;;;2.73;1.80;;;1.90;99.90;;;;;;5017061;28;20198;-78
2022/01/06 05:43:39;;;;;;;4.53;2.00;;;1.80;99.90;;;;;;5051279;28;20647;-78
2022/01/06 05:46:05;;;;;;;5.37;2.30;;;1.90;99.90;;;;;;5032546;28;20193;-77
2022/01/06 05:48:30;;;;;;;3.50;1.43;;;1.90;99.90;;;;;;5051001;28;20695;-78
2022/01/06 05:50:56;;;;;;;2.50;2.00;;;1.90;99.90;;;;;;5016406;28;20281;-76
2022/01/06 05:53:21;;;;;;;2.80;2.10;;;1.80;99.90;;;;;;5050403;28;20205;-76
2022/01/06 05:55:47;;;;;;;4.50;1.70;;;1.90;99.90;;;;;;5050740;28;20597;-76
2022/01/06 05:58:13;;;;;;;2.70;1.80;;;1.80;99.90;;;;;;5050251;28;20191;-76
2022/01/06 06:00:39;;;;;;;2.33;2.13;;;1.80;99.90;;;;;;5050240;28;20853;-76
2022/01/06 06:03:04;;;;;;;4.20;1.80;;;1.80;99.90;;;;;;5015740;28;20219;-75
2022/01/06 06:05:30;;;;;;;2.23;2.03;;;1.80;99.90;;;;;;5050058;28;20183;-78
2022/01/06 06:07:56;;;;;;;1.90;1.80;;;1.80;99.90;;;;;;5050471;28;20187;-75
2022/01/06 06:10:22;;;;;;;4.03;2.30;;;1.80;99.90;;;;;;5050287;28;20425;-74
2022/01/06 06:12:52;;;;;;;2.27;1.77;;;1.80;99.90;;;;;;5050398;28;20607;-75
2022/01/06 06:15:19;;;;;;;1.83;1.73;;;2.00;99.90;;;;;;5050998;28;20854;-79
2022/01/06 06:17:45;;;;;;;1.95;1.73;;;1.80;99.90;;;;;;5033500;28;20197;-78
2022/01/06 06:20:11;;;;;;;4.20;2.17;;;1.80;99.90;;;;;;5051484;28;20178;-80
2022/01/06 06:22:37;;;;;;;5.47;1.80;;;1.80;99.90;;;;;;5050803;28;20204;-74
2022/01/06 06:25:04;;;;;;;5.77;1.60;;;1.90;99.90;;;;;;5015750;28;20586;-74
2022/01/06 06:27:30;;;;;;;3.28;1.55;;;1.90;99.90;;;;;;5050150;28;20187;-74
2022/01/06 06:29:55;;;;;;;2.03;1.50;;;1.90;99.90;;;;;;5031894;28;20560;-74
2022/01/06 06:32:21;;;;;;;1.93;1.83;;;1.90;99.90;;;;;;5049308;28;20266;-74
2022/01/06 06:34:47;;;;;;;1.70;1.60;;;1.90;99.90;;;;;;5049870;28;20301;-77
2022/01/06 06:37:12;;;;;;;2.13;1.47;;;1.80;99.90;;;;;;5049963;28;20177;-78
2022/01/06 06:39:38;;;;;;;3.00;2.07;;;1.90;99.90;;;;;;5049571;28;20184;-77
2022/01/06 06:42:04;;;;;;;1.40;1.30;;;1.90;99.90;;;;;;5014836;28;20289;-77
2022/01/06 06:44:30;;;;;;;1.40;1.30;;;1.90;99.90;;;;;;5049341;28;20210;-77
2022/01/06 06:46:55;;;;;;;1.70;1.50;;;1.90;99.90;;;;;;5048950;28;20424;-77
2022/01/06 06:49:21;;;;;;;1.40;1.30;;;1.90;99.90;;;;;;5030983;28;20191;-77
2022/01/06 06:51:47;;;;;;;3.08;1.63;;;1.90;99.90;;;;;;5031229;28;20212;-77
2022/01/06 06:54:16;;;;;;;0.80;0.80;;;2.00;99.90;;;;;;5031136;28;20201;-77
2022/01/06 06:56:42;;;;;;;3.15;1.48;;;1.90;99.90;;;;;;5048971;28;20667;-77
2022/01/06 06:59:08;;;;;;;4.05;1.70;;;1.90;99.90;;;;;;5049120;28;20180;-77
2022/01/06 07:01:34;;;;;;;1.50;1.40;;;1.90;99.90;;;;;;5049001;28;20211;-77
2022/01/06 07:04:00;;;;;;;1.93;1.37;;;1.90;99.90;;;;;;5048704;28;20450;-77
2022/01/06 07:06:25;;;;;;;3.00;1.90;;;1.90;99.90;;;;;;5048756;28;20194;-77
2022/01/06 07:08:51;;;;;;;1.97;1.30;;;1.90;99.90;;;;;;5048590;28;20185;-77
2022/01/06 07:11:16;;;;;;;2.37;1.47;;;1.90;99.90;;;;;;5048505;28;20323;-77
2022/01/06 07:13:42;;;;;;;1.90;1.33;;;2.00;99.90;;;;;;5048642;28;20196;-77
2022/01/06 07:16:08;;;;;;;1.83;1.60;;;2.00;99.90;;;;;;5049240;28;20190;-78
2022/01/06 07:18:33;;;;;;;2.43;1.53;;;2.00;99.90;;;;;;5031230;28;20187;-77
2022/01/06 07:20:59;;;;;;;1.87;1.30;;;2.00;99.90;;;;;;5049186;28;20237;-78
2022/01/06 07:23:25;;;;;;;2.10;1.20;;;2.00;99.90;;;;;;5049162;28;20200;-77
2022/01/06 07:25:50;;;;;;;2.57;1.53;;;1.90;99.90;;;;;;5030931;28;20526;-77
2022/01/06 07:28:16;;;;;;;1.83;1.20;;;1.90;99.90;;;;;;5030640;28;20661;-77
2022/01/06 07:30:41;;;;;;;1.37;1.10;;;1.90;99.90;;;;;;5048296;28;20244;-77
2022/01/06 07:33:07;;;;;;;1.30;1.20;;;2.00;99.90;;;;;;5030353;28;20224;-77
2022/01/06 07:35:33;;;;;;;3.17;1.07;;;2.00;99.90;;;;;;5048287;28;20673;-77
2022/01/06 07:37:59;;;;;;;1.43;1.10;;;2.10;99.90;;;;;;5030991;28;20197;-77
2022/01/06 07:40:24;;;;;;;2.00;1.43;;;2.10;99.90;;;;;;5049834;28;20178;-77
2022/01/06 07:42:51;;;;;;;1.30;1.17;;;2.10;99.90;;;;;;5048517;28;20214;-78
2022/01/06 07:45:16;;;;;;;4.32;2.00;;;2.20;99.90;;;;;;5051900;28;20200;-76
2022/01/06 07:47:54;;;;;;;1.50;1.40;;;2.20;99.90;;;;;;5018048;28;20666;-77
2022/01/06 07:50:22;;;;;;;1.45;1.35;;;2.10;99.90;;;;;;5052175;28;20436;-77
2022/01/06 07:52:48;;;;;;;2.72;1.80;;;2.10;99.90;;;;;;5052223;28;20207;-77
2022/01/06 07:55:13;;;;;;;5.07;1.90;;;2.10;99.90;;;;;;5053033;28;20197;-76
2022/01/06 07:57:39;;;;;;;16.03;6.70;;;2.10;99.90;;;;;;5001705;28;20248;-77
2022/01/06 08:00:05;;;;;;;24.00;8.27;;;2.10;99.90;;;;;;5052519;28;20662;-77
2022/01/06 08:02:31;;;;;;;6.20;2.60;;;2.10;99.90;;;;;;5034037;28;20216;-77
2022/01/06 08:04:56;;;;;;;32.43;10.57;;;2.20;99.90;;;;;;5052153;28;20259;-77
2022/01/06 08:07:22;;;;;;;20.70;11.00;;;2.30;99.90;;;;;;5051996;28;20194;-77
2022/01/06 08:09:48;;;;;;;7.60;4.63;;;2.30;99.90;;;;;;5034149;28;20581;-77
2022/01/06 08:12:13;;;;;;;7.60;5.20;;;2.30;99.90;;;;;;5033835;28;20702;-77
2022/01/06 08:14:39;;;;;;;2.60;2.40;;;2.30;99.90;;;;;;5033943;28;20193;-77
2022/01/06 08:17:04;;;;;;;1.67;1.53;;;2.40;99.90;;;;;;5034174;28;20209;-77
2022/01/06 08:19:30;;;;;;;11.93;6.40;;;2.40;99.90;;;;;;5051932;28;20189;-77
2022/01/06 08:21:56;;;;;;;25.63;11.00;;;2.40;99.90;;;;;;5033721;28;20184;-77
2022/01/06 08:24:22;;;;;;;11.40;6.07;;;2.50;99.90;;;;;;5033688;28;20215;-77
2022/01/06 08:26:48;;;;;;;3.70;2.47;;;2.50;99.90;;;;;;5033614;28;20188;-77
2022/01/06 08:29:13;;;;;;;14.80;7.63;;;2.50;99.90;;;;;;5051635;28;20268;-77
2022/01/06 08:31:39;;;;;;;21.87;9.90;;;2.50;99.90;;;;;;5033308;28;20478;-77
2022/01/06 08:34:05;;;;;;;24.60;10.03;;;2.50;99.90;;;;;;5050732;28;20241;-76
2022/01/06 08:36:30;;;;;;;5.73;3.40;;;2.50;99.90;;;;;;5050823;28;20184;-77
2022/01/06 08:38:56;;;;;;;3.97;1.73;;;2.60;99.90;;;;;;5016246;28;20186;-77
2022/01/06 08:41:22;;;;;;;2.70;1.43;;;2.70;99.90;;;;;;5016289;28;20206;-77
2022/01/06 08:43:47;;;;;;;2.90;1.60;;;2.70;99.90;;;;;;5032645;28;20202;-77
2022/01/06 08:46:13;;;;;;;6.03;2.27;;;2.70;99.90;;;;;;5016545;28;20184;-77
2022/01/06 08:48:39;;;;;;;5.28;1.95;;;2.80;99.90;;;;;;5050646;28;20225;-77
2022/01/06 08:51:05;;;;;;;19.43;8.27;;;2.80;99.90;;;;;;5050538;28;20649;-77
2022/01/06 08:53:30;;;;;;;2.53;1.70;;;2.90;99.90;;;;;;5032615;28;20205;-77
2022/01/06 08:55:56;;;;;;;7.00;3.37;;;3.10;99.90;;;;;;5050276;28;20710;-77
2022/01/06 08:58:22;;;;;;;6.67;3.77;;;3.20;99.90;;;;;;5032613;28;20267;-77
2022/01/06 09:00:48;;;;;;;6.53;3.83;;;3.40;99.90;;;;;;5050307;28;20243;-77
2022/01/06 09:03:14;;;;;;;3.63;2.90;;;3.60;99.90;;;;;;5050293;28;20216;-77
2022/01/06 09:05:40;;;;;;;7.40;2.70;;;3.70;99.90;;;;;;5050563;28;20422;-77
2022/01/06 09:08:07;;;;;;;5.20;2.73;;;3.70;99.90;;;;;;5050460;28;20194;-76
2022/01/06 09:10:34;;;;;;;3.28;2.33;;;3.80;99.90;;;;;;5050322;28;20507;-77
2022/01/06 09:13:00;;;;;;;16.08;3.03;;;3.80;99.90;;;;;;5050298;28;20199;-77
2022/01/06 09:15:26;;;;;;;6.43;1.93;;;3.70;99.90;;;;;;5050356;28;20190;-77
2022/01/06 09:17:52;;;;;;;4.43;1.70;;;3.70;99.90;;;;;;5032479;28;20947;-77
2022/01/06 09:20:18;;;;;;;5.30;1.87;;;3.40;99.90;;;;;;5032745;28;20424;-76
2022/01/06 09:22:44;;;;;;;9.40;3.40;;;3.30;99.90;;;;;;5033116;28;20289;-75
2022/01/06 09:25:12;;;;;;;8.43;3.75;;;3.30;99.90;;;;;;5051304;28;20182;-77
2022/01/06 09:27:39;;;;;;;3.83;2.80;;;3.30;99.90;;;;;;5050600;28;20587;-77
2022/01/06 09:30:05;;;;;;;23.50;12.25;;;3.30;99.90;;;;;;5015426;28;20435;-76
2022/01/06 09:32:31;;;;;;;8.43;6.03;;;3.10;99.90;;;;;;5049929;28;20254;-76
2022/01/06 09:34:57;;;;;;;5.70;5.00;;;3.10;99.90;;;;;;5049951;28;20234;-77
2022/01/06 09:37:23;;;;;;;5.30;3.10;;;3.10;99.90;;;;;;5050142;28;20265;-77
2022/01/06 09:39:50;;;;;;;4.80;3.10;;;3.30;99.90;;;;;;5015324;28;20950;-77
2022/01/06 09:42:17;;;;;;;7.90;2.07;;;3.40;99.90;;;;;;5049935;28;20188;-76
2022/01/06 09:44:43;;;;;;;7.20;1.95;;;3.30;99.90;;;;;;5015783;28;20511;-76
2022/01/06 09:47:09;;;;;;;7.50;2.13;;;3.40;99.90;;;;;;5032610;28;20741;-76
2022/01/06 09:49:37;;;;;;;4.50;1.63;;;3.40;99.90;;;;;;5033187;28;20422;-76
2022/01/06 09:52:04;;;;;;;3.03;1.90;;;3.40;99.90;;;;;;5051097;28;20582;-77
2022/01/06 09:54:30;;;;;;;4.22;1.90;;;3.50;99.90;;;;;;5049814;28;20239;-77
2022/01/06 09:56:56;;;;;;;2.20;1.93;;;4.00;99.90;;;;;;5034579;28;20210;-77
2022/01/06 09:59:22;;;;;;;2.90;2.50;;;4.50;99.90;;;;;;5049716;28;20456;-77
2022/01/06 10:01:47;;;;;;;3.20;1.90;;;4.40;99.90;;;;;;5049832;28;20659;-77
2022/01/06 10:04:18;;;;;;;2.70;1.73;;;4.50;99.90;;;;;;5015691;28;20215;-77
2022/01/06 10:06:56;;;;;;;7.63;1.63;;;4.60;99.90;;;;;;5049991;28;20676;-77
2022/01/06 10:09:23;;;;;;;3.42;1.88;;;4.50;99.90;;;;;;5050579;28;20421;-77
2022/01/06 10:11:49;;;;;;;3.90;1.57;;;4.40;99.90;;;;;;5050615;28;20301;-77
2022/01/06 10:14:20;;;;;;;13.63;2.00;;;4.40;99.90;;;;;;5032303;28;20528;-77
2022/01/06 10:16:50;;;;;;;4.20;1.90;;;4.40;99.90;;;;;;5050368;28;20172;-77
2022/01/06 10:19:16;;;;;;;5.03;1.90;;;4.40;99.90;;;;;;5032614;28;20456;-77
2022/01/06 10:21:47;;;;;;;2.22;1.52;;;4.40;99.90;;;;;;5050241;28;20185;-77
2022/01/06 10:24:19;;;;;;;3.08;1.40;;;4.60;99.90;;;;;;5050996;28;20233;-77
2022/01/06 10:26:58;;;;;;;4.60;1.90;;;4.50;99.90;;;;;;5049831;28;20265;-77
2022/01/06 10:29:30;;;;;;;4.20;1.80;;;4.30;99.90;;;;;;5031444;28;20427;-76
2022/01/06 10:32:07;;;;;;;4.60;2.27;;;4.20;99.90;;;;;;5049856;28;20488;-76
2022/01/06 10:34:39;;;;;;;2.67;1.73;;;4.10;99.90;;;;;;5031460;28;20461;-76
2022/01/06 10:37:26;;;;;;;4.27;2.23;;;4.20;99.90;;;;;;5031761;28;20428;-76
2022/01/06 10:39:59;;;;;;;2.40;1.80;;;4.30;99.90;;;;;;5049029;28;20577;-76
2022/01/06 10:42:26;;;;;;;4.43;1.73;;;4.60;99.90;;;;;;5048724;28;20298;-74
2022/01/06 10:45:00;;;;;;;3.07;2.30;;;6.10;99.90;;;;;;5048943;28;20410;-76
2022/01/06 10:47:35;;;;;;;2.53;2.00;;;6.70;99.90;;;;;;5031675;28;20455;-77
2022/01/06 10:50:31;;;;;;;3.50;2.17;;;6.70;99.90;;;;;;5048733;28;20418;-76
2022/01/06 10:53:04;;;;;;;3.40;1.83;;;6.90;99.90;;;;;;5029201;28;20447;-76
2022/01/06 10:55:34;;;;;;;4.27;2.07;;;7.20;99.90;;;;;;5048769;28;20402;-74
2022/01/06 10:58:10;;;;;;;6.10;2.37;;;7.10;99.90;;;;;;5031754;28;20857;-78
2022/01/06 11:00:41;;;;;;;7.13;2.27;;;6.80;99.90;;;;;;5048249;28;20489;-72
2022/01/06 11:03:25;;;;;;;8.23;2.37;;;6.50;99.90;;;;;;5048396;28;20434;-75
2022/01/06 11:05:53;;;;;;;6.10;2.90;;;6.40;99.90;;;;;;5048481;28;20479;-75
2022/01/06 11:08:21;;;;;;;8.00;2.57;;;6.30;99.90;;;;;;5048476;28;20776;-75
2022/01/06 11:11:01;;;;;;;7.03;2.70;;;6.00;99.90;;;;;;5029934;28;20468;-76
2022/01/06 11:13:31;;;;;;;4.90;2.03;;;5.90;99.90;;;;;;5048003;28;20438;-75
2022/01/06 11:15:58;;;;;;;4.03;2.20;;;5.70;99.90;;;;;;5048007;28;20430;-74
2022/01/06 11:18:24;;;;;;;14.82;3.28;;;5.60;99.90;;;;;;5047715;28;20421;-74
2022/01/06 11:20:51;;;;;;;5.27;2.30;;;5.60;99.90;;;;;;5047983;28;20668;-75
2022/01/06 11:23:22;;;;;;;6.43;1.93;;;5.70;99.90;;;;;;5047704;28;20840;-74
2022/01/06 11:26:01;;;;;;;5.73;2.30;;;6.60;99.90;;;;;;5047578;28;20430;-76
2022/01/06 11:28:30;;;;;;;3.80;1.67;;;7.60;99.90;;;;;;5047669;28;20429;-75
2022/01/06 11:30:56;;;;;;;4.77;2.20;;;8.40;99.90;;;;;;5029578;28;20885;-75
2022/01/06 11:33:22;;;;;;;4.53;2.17;;;8.50;99.90;;;;;;5047266;28;21243;-75
2022/01/06 11:35:51;;;;;;;5.60;1.70;;;8.90;99.90;;;;;;5029356;28;20473;-75
2022/01/06 11:38:19;;;;;;;10.70;2.43;;;8.60;99.90;;;;;;5047300;28;20414;-75
2022/01/06 11:40:47;;;;;;;4.20;2.20;;;8.20;99.90;;;;;;5047628;28;20425;-75
2022/01/06 11:43:13;;;;;;;6.50;2.20;;;8.20;99.90;;;;;;5047279;28;20822;-75
2022/01/06 11:45:39;;;;;;;4.20;1.87;;;8.00;99.90;;;;;;5047361;28;20480;-75
2022/01/06 11:48:08;;;;;;;6.93;3.03;;;7.60;99.90;;;;;;5047554;28;20436;-75
2022/01/06 11:50:40;;;;;;;5.10;2.47;;;7.40;99.90;;;;;;5047414;28;20426;-75
2022/01/06 11:53:07;;;;;;;6.70;2.07;;;7.00;99.90;;;;;;5047405;28;20442;-75
2022/01/06 11:55:46;;;;;;;6.90;1.97;;;6.80;99.90;;;;;;5029538;28;20422;-75
2022/01/06 11:58:13;;;;;;;3.07;1.87;;;6.40;99.90;;;;;;5048982;28;20425;-74
2022/01/06 12:00:43;;;;;;;4.13;2.10;;;6.10;99.90;;;;;;5065239;28;20422;-74
2022/01/06 12:03:13;;;;;;;2.50;2.07;;;5.80;99.90;;;;;;5030616;28;20442;-74
2022/01/06 12:05:43;;;;;;;14.37;2.70;;;5.60;99.90;;;;;;5047200;28;20427;-74
2022/01/06 12:08:09;;;;;;;4.47;2.77;;;5.50;99.90;;;;;;5047243;28;21095;-74
2022/01/06 12:10:44;;;;;;;5.47;1.83;;;5.30;99.90;;;;;;5047211;28;20989;-74
2022/01/06 12:13:09;;;;;;;5.43;2.03;;;5.20;99.90;;;;;;5029420;28;20433;-75
2022/01/06 12:15:46;;;;;;;5.00;2.30;;;5.10;99.90;;;;;;5029432;28;20437;-75
2022/01/06 12:18:35;;;;;;;6.23;2.37;;;4.90;99.90;;;;;;5047530;28;20676;-74
2022/01/06 12:21:01;;;;;;;9.00;3.80;;;4.70;99.90;;;;;;5047816;28;20418;-76
2022/01/06 12:23:27;;;;;;;8.97;2.87;;;4.60;99.90;;;;;;5047142;28;20521;-76
2022/01/06 12:26:04;;;;;;;7.17;3.23;;;4.50;99.90;;;;;;5047004;28;20427;-75
2022/01/06 12:28:32;;;;;;;7.30;2.10;;;4.40;99.90;;;;;;5047073;28;20221;-75
2022/01/06 12:31:04;;;;;;;5.67;1.80;;;4.30;99.90;;;;;;5048849;28;20464;-76
2022/01/06 12:33:31;;;;;;;13.00;1.93;;;4.10;99.90;;;;;;5050469;28;20820;-76
2022/01/06 12:35:58;;;;;;;4.57;1.37;;;4.10;99.90;;;;;;5050796;28;20417;-75
2022/01/06 12:38:31;;;;;;;6.73;1.70;;;4.00;99.90;;;;;;5050761;28;20437;-75
2022/01/06 12:40:57;;;;;;;4.43;1.88;;;4.00;99.90;;;;;;5050884;28;20918;-75
2022/01/06 12:43:25;;;;;;;4.50;1.23;;;4.10;99.90;;;;;;5032818;28;20220;-76
2022/01/06 12:46:03;;;;;;;3.77;1.30;;;4.10;99.90;;;;;;5050696;28;20827;-76
2022/01/06 12:48:31;;;;;;;9.50;1.83;;;4.10;99.90;;;;;;5050665;28;20424;-75
2022/01/06 12:50:58;;;;;;;2.90;1.50;;;4.10;99.90;;;;;;5050626;28;20460;-74
2022/01/06 12:53:32;;;;;;;7.90;2.20;;;4.20;99.90;;;;;;5050657;28;20460;-75
2022/01/06 12:55:58;;;;;;;9.63;2.13;;;4.20;99.90;;;;;;5050856;28;20424;-75
2022/01/06 12:58:26;;;;;;;10.13;1.50;;;4.20;99.90;;;;;;5051287;28;20437;-75
2022/01/06 13:00:53;;;;;;;3.88;1.55;;;4.10;99.90;;;;;;5051441;28;20531;-74
2022/01/06 13:03:31;;;;;;;3.40;1.80;;;4.10;99.90;;;;;;5051173;28;20211;-75
2022/01/06 13:05:57;;;;;;;7.33;1.50;;;4.10;99.90;;;;;;5051286;28;20466;-75